sensor_id;sensor_type;location;lat;lon;timestamp;P1;durP1;ratioP1;P2;durP2;ratioP2
24411;SDS011;12544;46.760;15.942;2024-02-14T00:00:36;2.10;;;1.90;;
24411;SDS011;12544;46.760;15.942;2024-02-14T00:03:02;2.33;;;1.77;;
24411;SDS011;12544;46.760;15.942;2024-02-14T00:05:28;2.88;;;2.05;;
24411;SDS011;12544;46.760;15.942;2024-02-14T00:07:54;4.72;;;2.38;;
24411;SDS011;12544;46.760;15.942;2024-02-14T00:10:19;3.22;;;2.42;;
24411;SDS011;12544;46.760;15.942;2024-02-14T00:12:45;3.85;;;3.10;;
24411;SDS011;12544;46.760;15.942;2024-02-14T00:15:12;2.35;;;2.08;;
24411;SDS011;12544;46.760;15.942;2024-02-14T00:17:38;3.28;;;2.00;;
24411;SDS011;12544;46.760;15.942;2024-02-14T00:20:04;2.42;;;1.65;;
24411;SDS011;12544;46.760;15.942;2024-02-14T00:22:30;3.00;;;2.30;;
24411;SDS011;12544;46.760;15.942;2024-02-14T00:24:56;3.63;;;2.70;;
24411;SDS011;12544;46.760;15.942;2024-02-14T00:27:22;3.15;;;2.40;;
24411;SDS011;12544;46.760;15.942;2024-02-14T00:29:49;3.13;;;2.40;;
24411;SDS011;12544;46.760;15.942;2024-02-14T00:32:15;4.25;;;2.40;;
24411;SDS011;12544;46.760;15.942;2024-02-14T00:34:40;2.42;;;2.20;;
24411;SDS011;12544;46.760;15.942;2024-02-14T00:37:06;2.70;;;1.92;;
24411;SDS011;12544;46.760;15.942;2024-02-14T00:39:33;3.85;;;2.08;;
24411;SDS011;12544;46.760;15.942;2024-02-14T00:41:58;2.25;;;1.85;;
24411;SDS011;12544;46.760;15.942;2024-02-14T00:44:24;2.95;;;2.60;;
24411;SDS011;12544;46.760;15.942;2024-02-14T00:46:55;2.10;;;1.90;;
24411;SDS011;12544;46.760;15.942;2024-02-14T00:49:23;3.40;;;1.90;;
24411;SDS011;12544;46.760;15.942;2024-02-14T00:51:48;3.05;;;2.00;;
24411;SDS011;12544;46.760;15.942;2024-02-14T00:54:14;3.30;;;2.08;;
24411;SDS011;12544;46.760;15.942;2024-02-14T00:56:40;1.90;;;1.80;;
24411;SDS011;12544;46.760;15.942;2024-02-14T00:59:05;5.00;;;2.00;;
24411;SDS011;12544;46.760;15.942;2024-02-14T01:01:32;2.13;;;1.88;;
24411;SDS011;12544;46.760;15.942;2024-02-14T01:03:58;2.97;;;2.03;;
24411;SDS011;12544;46.760;15.942;2024-02-14T01:06:26;2.78;;;2.03;;
24411;SDS011;12544;46.760;15.942;2024-02-14T01:08:51;3.90;;;2.00;;
24411;SDS011;12544;46.760;15.942;2024-02-14T01:11:17;4.45;;;2.00;;
24411;SDS011;12544;46.760;15.942;2024-02-14T01:13:42;2.45;;;2.25;;
24411;SDS011;12544;46.760;15.942;2024-02-14T01:16:08;3.35;;;2.47;;
24411;SDS011;12544;46.760;15.942;2024-02-14T01:18:35;4.88;;;2.83;;
24411;SDS011;12544;46.760;15.942;2024-02-14T01:21:01;3.85;;;3.10;;
24411;SDS011;12544;46.760;15.942;2024-02-14T01:23:26;4.70;;;3.10;;
24411;SDS011;12544;46.760;15.942;2024-02-14T01:25:52;5.57;;;3.53;;
24411;SDS011;12544;46.760;15.942;2024-02-14T01:28:19;7.95;;;3.92;;
24411;SDS011;12544;46.760;15.942;2024-02-14T01:30:45;4.13;;;3.40;;
24411;SDS011;12544;46.760;15.942;2024-02-14T01:33:11;5.10;;;3.67;;
24411;SDS011;12544;46.760;15.942;2024-02-14T01:35:36;6.55;;;3.53;;
24411;SDS011;12544;46.760;15.942;2024-02-14T01:38:02;6.45;;;3.58;;
24411;SDS011;12544;46.760;15.942;2024-02-14T01:40:28;5.65;;;3.75;;
24411;SDS011;12544;46.760;15.942;2024-02-14T01:42:54;5.30;;;3.83;;
24411;SDS011;12544;46.760;15.942;2024-02-14T01:45:20;5.53;;;3.78;;
24411;SDS011;12544;46.760;15.942;2024-02-14T01:47:46;6.57;;;3.50;;
24411;SDS011;12544;46.760;15.942;2024-02-14T01:50:13;4.65;;;3.17;;
24411;SDS011;12544;46.760;15.942;2024-02-14T01:52:39;3.60;;;2.70;;
24411;SDS011;12544;46.760;15.942;2024-02-14T01:55:05;3.80;;;2.80;;
24411;SDS011;12544;46.760;15.942;2024-02-14T01:57:33;3.22;;;2.92;;
24411;SDS011;12544;46.760;15.942;2024-02-14T01:59:59;3.65;;;3.00;;
24411;SDS011;12544;46.760;15.942;2024-02-14T02:02:32;4.93;;;3.05;;
24411;SDS011;12544;46.760;15.942;2024-02-14T02:05:01;3.75;;;2.85;;
24411;SDS011;12544;46.760;15.942;2024-02-14T02:07:27;3.30;;;2.67;;
24411;SDS011;12544;46.760;15.942;2024-02-14T02:09:53;3.45;;;2.83;;
24411;SDS011;12544;46.760;15.942;2024-02-14T02:12:18;3.78;;;2.92;;
24411;SDS011;12544;46.760;15.942;2024-02-14T02:14:44;3.25;;;2.78;;
24411;SDS011;12544;46.760;15.942;2024-02-14T02:17:10;4.07;;;2.80;;
24411;SDS011;12544;46.760;15.942;2024-02-14T02:19:36;3.72;;;2.65;;
24411;SDS011;12544;46.760;15.942;2024-02-14T02:22:02;4.30;;;3.25;;
24411;SDS011;12544;46.760;15.942;2024-02-14T02:24:29;3.75;;;3.22;;
24411;SDS011;12544;46.760;15.942;2024-02-14T02:26:55;3.75;;;3.08;;
24411;SDS011;12544;46.760;15.942;2024-02-14T02:29:21;4.53;;;3.10;;
24411;SDS011;12544;46.760;15.942;2024-02-14T02:31:47;4.53;;;3.53;;
24411;SDS011;12544;46.760;15.942;2024-02-14T02:34:13;3.72;;;2.97;;
24411;SDS011;12544;46.760;15.942;2024-02-14T02:36:39;3.58;;;2.92;;
24411;SDS011;12544;46.760;15.942;2024-02-14T02:39:06;4.95;;;3.20;;
24411;SDS011;12544;46.760;15.942;2024-02-14T02:41:32;3.92;;;2.70;;
24411;SDS011;12544;46.760;15.942;2024-02-14T02:43:58;3.08;;;2.70;;
24411;SDS011;12544;46.760;15.942;2024-02-14T02:46:25;3.63;;;2.45;;
24411;SDS011;12544;46.760;15.942;2024-02-14T02:48:51;3.05;;;2.28;;
24411;SDS011;12544;46.760;15.942;2024-02-14T02:51:19;5.65;;;3.08;;
24411;SDS011;12544;46.760;15.942;2024-02-14T02:53:45;3.50;;;2.67;;
24411;SDS011;12544;46.760;15.942;2024-02-14T02:56:11;3.33;;;2.95;;
24411;SDS011;12544;46.760;15.942;2024-02-14T02:58:37;3.38;;;2.90;;
24411;SDS011;12544;46.760;15.942;2024-02-14T03:01:07;5.60;;;3.38;;
24411;SDS011;12544;46.760;15.942;2024-02-14T03:03:34;4.07;;;2.85;;
24411;SDS011;12544;46.760;15.942;2024-02-14T03:06:01;4.88;;;2.70;;
24411;SDS011;12544;46.760;15.942;2024-02-14T03:08:28;3.72;;;3.13;;
24411;SDS011;12544;46.760;15.942;2024-02-14T03:10:55;3.58;;;3.28;;
24411;SDS011;12544;46.760;15.942;2024-02-14T03:13:24;6.10;;;3.38;;
24411;SDS011;12544;46.760;15.942;2024-02-14T03:15:51;5.03;;;3.45;;
24411;SDS011;12544;46.760;15.942;2024-02-14T03:18:17;4.90;;;3.08;;
24411;SDS011;12544;46.760;15.942;2024-02-14T03:20:44;3.85;;;3.22;;
24411;SDS011;12544;46.760;15.942;2024-02-14T03:23:09;4.03;;;2.90;;
24411;SDS011;12544;46.760;15.942;2024-02-14T03:25:35;5.45;;;2.92;;
24411;SDS011;12544;46.760;15.942;2024-02-14T03:28:03;5.03;;;3.15;;
24411;SDS011;12544;46.760;15.942;2024-02-14T03:30:33;5.72;;;2.55;;
24411;SDS011;12544;46.760;15.942;2024-02-14T03:33:04;3.83;;;2.80;;
24411;SDS011;12544;46.760;15.942;2024-02-14T03:35:30;3.58;;;2.90;;
24411;SDS011;12544;46.760;15.942;2024-02-14T03:37:55;3.58;;;2.85;;
24411;SDS011;12544;46.760;15.942;2024-02-14T03:40:21;3.42;;;3.03;;
24411;SDS011;12544;46.760;15.942;2024-02-14T03:42:47;4.72;;;2.90;;
24411;SDS011;12544;46.760;15.942;2024-02-14T03:45:13;5.00;;;2.97;;
24411;SDS011;12544;46.760;15.942;2024-02-14T03:47:39;3.65;;;3.05;;
24411;SDS011;12544;46.760;15.942;2024-02-14T03:50:05;4.57;;;2.95;;
24411;SDS011;12544;46.760;15.942;2024-02-14T03:52:38;4.10;;;3.22;;
24411;SDS011;12544;46.760;15.942;2024-02-14T03:55:05;6.53;;;2.90;;
24411;SDS011;12544;46.760;15.942;2024-02-14T03:57:30;3.90;;;3.13;;
24411;SDS011;12544;46.760;15.942;2024-02-14T03:59:59;4.22;;;3.00;;
24411;SDS011;12544;46.760;15.942;2024-02-14T04:02:28;3.35;;;2.75;;
24411;SDS011;12544;46.760;15.942;2024-02-14T04:04:54;4.45;;;3.25;;
24411;SDS011;12544;46.760;15.942;2024-02-14T04:07:19;4.63;;;3.33;;
24411;SDS011;12544;46.760;15.942;2024-02-14T04:09:45;5.50;;;3.08;;
24411;SDS011;12544;46.760;15.942;2024-02-14T04:12:10;3.78;;;3.20;;
24411;SDS011;12544;46.760;15.942;2024-02-14T04:14:37;4.05;;;3.13;;
24411;SDS011;12544;46.760;15.942;2024-02-14T04:17:04;5.85;;;3.03;;
24411;SDS011;12544;46.760;15.942;2024-02-14T04:19:32;4.45;;;3.20;;
24411;SDS011;12544;46.760;15.942;2024-02-14T04:21:58;4.00;;;2.95;;
24411;SDS011;12544;46.760;15.942;2024-02-14T04:24:24;3.30;;;2.72;;
24411;SDS011;12544;46.760;15.942;2024-02-14T04:26:49;3.88;;;3.38;;
24411;SDS011;12544;46.760;15.942;2024-02-14T04:29:15;7.28;;;4.28;;
24411;SDS011;12544;46.760;15.942;2024-02-14T04:31:40;4.28;;;3.40;;
24411;SDS011;12544;46.760;15.942;2024-02-14T04:34:07;6.97;;;3.92;;
24411;SDS011;12544;46.760;15.942;2024-02-14T04:36:34;4.40;;;3.17;;
24411;SDS011;12544;46.760;15.942;2024-02-14T04:39:00;5.43;;;3.30;;
24411;SDS011;12544;46.760;15.942;2024-02-14T04:41:26;5.18;;;3.60;;
24411;SDS011;12544;46.760;15.942;2024-02-14T04:43:52;4.75;;;3.00;;
24411;SDS011;12544;46.760;15.942;2024-02-14T04:46:18;4.40;;;3.42;;
24411;SDS011;12544;46.760;15.942;2024-02-14T04:48:43;5.18;;;3.25;;
24411;SDS011;12544;46.760;15.942;2024-02-14T04:51:09;5.32;;;4.38;;
24411;SDS011;12544;46.760;15.942;2024-02-14T04:53:34;6.15;;;3.92;;
24411;SDS011;12544;46.760;15.942;2024-02-14T04:56:00;4.53;;;3.58;;
24411;SDS011;12544;46.760;15.942;2024-02-14T04:58:26;5.57;;;3.30;;
24411;SDS011;12544;46.760;15.942;2024-02-14T05:00:52;4.03;;;3.20;;
24411;SDS011;12544;46.760;15.942;2024-02-14T05:03:18;7.75;;;3.40;;
24411;SDS011;12544;46.760;15.942;2024-02-14T05:05:44;4.90;;;3.70;;
24411;SDS011;12544;46.760;15.942;2024-02-14T05:08:09;8.60;;;4.43;;
24411;SDS011;12544;46.760;15.942;2024-02-14T05:10:35;5.28;;;3.65;;
24411;SDS011;12544;46.760;15.942;2024-02-14T05:13:01;6.40;;;3.55;;
24411;SDS011;12544;46.760;15.942;2024-02-14T05:15:27;5.32;;;3.80;;
24411;SDS011;12544;46.760;15.942;2024-02-14T05:17:52;4.95;;;3.63;;
24411;SDS011;12544;46.760;15.942;2024-02-14T05:20:18;5.95;;;3.78;;
24411;SDS011;12544;46.760;15.942;2024-02-14T05:22:44;4.78;;;4.38;;
24411;SDS011;12544;46.760;15.942;2024-02-14T05:25:10;3.88;;;3.45;;
24411;SDS011;12544;46.760;15.942;2024-02-14T05:27:35;4.70;;;3.45;;
24411;SDS011;12544;46.760;15.942;2024-02-14T05:30:02;3.83;;;3.40;;
24411;SDS011;12544;46.760;15.942;2024-02-14T05:32:33;4.85;;;3.88;;
24411;SDS011;12544;46.760;15.942;2024-02-14T05:34:59;5.57;;;3.92;;
24411;SDS011;12544;46.760;15.942;2024-02-14T05:37:25;6.30;;;4.03;;
24411;SDS011;12544;46.760;15.942;2024-02-14T05:39:54;4.47;;;3.17;;
24411;SDS011;12544;46.760;15.942;2024-02-14T05:42:20;4.40;;;3.50;;
24411;SDS011;12544;46.760;15.942;2024-02-14T05:44:46;4.75;;;4.25;;
24411;SDS011;12544;46.760;15.942;2024-02-14T05:47:12;7.53;;;3.70;;
24411;SDS011;12544;46.760;15.942;2024-02-14T05:49:40;4.30;;;3.25;;
24411;SDS011;12544;46.760;15.942;2024-02-14T05:52:07;5.25;;;3.40;;
24411;SDS011;12544;46.760;15.942;2024-02-14T05:54:33;9.52;;;4.65;;
24411;SDS011;12544;46.760;15.942;2024-02-14T05:56:58;3.97;;;2.70;;
24411;SDS011;12544;46.760;15.942;2024-02-14T05:59:24;3.75;;;3.38;;
24411;SDS011;12544;46.760;15.942;2024-02-14T06:01:50;6.13;;;4.97;;
24411;SDS011;12544;46.760;15.942;2024-02-14T06:04:15;5.53;;;4.05;;
24411;SDS011;12544;46.760;15.942;2024-02-14T06:06:41;7.82;;;4.95;;
24411;SDS011;12544;46.760;15.942;2024-02-14T06:09:07;7.63;;;6.28;;
24411;SDS011;12544;46.760;15.942;2024-02-14T06:11:34;9.57;;;8.07;;
24411;SDS011;12544;46.760;15.942;2024-02-14T06:14:01;7.93;;;7.13;;
24411;SDS011;12544;46.760;15.942;2024-02-14T06:16:27;7.00;;;6.30;;
24411;SDS011;12544;46.760;15.942;2024-02-14T06:18:53;5.78;;;4.65;;
24411;SDS011;12544;46.760;15.942;2024-02-14T06:21:18;9.40;;;4.47;;
24411;SDS011;12544;46.760;15.942;2024-02-14T06:23:44;4.90;;;4.20;;
24411;SDS011;12544;46.760;15.942;2024-02-14T06:26:11;5.95;;;3.17;;
24411;SDS011;12544;46.760;15.942;2024-02-14T06:28:37;3.67;;;3.13;;
24411;SDS011;12544;46.760;15.942;2024-02-14T06:31:03;5.15;;;3.10;;
24411;SDS011;12544;46.760;15.942;2024-02-14T06:33:28;4.22;;;2.95;;
24411;SDS011;12544;46.760;15.942;2024-02-14T06:35:54;4.45;;;3.17;;
24411;SDS011;12544;46.760;15.942;2024-02-14T06:38:20;5.25;;;3.40;;
24411;SDS011;12544;46.760;15.942;2024-02-14T06:40:45;7.72;;;3.80;;
24411;SDS011;12544;46.760;15.942;2024-02-14T06:43:11;4.53;;;3.83;;
24411;SDS011;12544;46.760;15.942;2024-02-14T06:45:37;5.63;;;4.38;;
24411;SDS011;12544;46.760;15.942;2024-02-14T06:48:03;6.50;;;3.83;;
24411;SDS011;12544;46.760;15.942;2024-02-14T06:50:29;5.57;;;3.70;;
24411;SDS011;12544;46.760;15.942;2024-02-14T06:52:56;4.97;;;4.10;;
24411;SDS011;12544;46.760;15.942;2024-02-14T06:55:25;7.05;;;4.30;;
24411;SDS011;12544;46.760;15.942;2024-02-14T06:57:52;5.18;;;4.55;;
24411;SDS011;12544;46.760;15.942;2024-02-14T07:00:17;5.65;;;4.60;;
24411;SDS011;12544;46.760;15.942;2024-02-14T07:02:43;4.53;;;4.00;;
24411;SDS011;12544;46.760;15.942;2024-02-14T07:05:12;8.13;;;5.25;;
24411;SDS011;12544;46.760;15.942;2024-02-14T07:07:39;6.05;;;4.65;;
24411;SDS011;12544;46.760;15.942;2024-02-14T07:10:06;5.03;;;4.25;;
24411;SDS011;12544;46.760;15.942;2024-02-14T07:12:32;6.47;;;4.45;;
24411;SDS011;12544;46.760;15.942;2024-02-14T07:14:58;5.68;;;3.80;;
24411;SDS011;12544;46.760;15.942;2024-02-14T07:17:23;5.70;;;4.05;;
24411;SDS011;12544;46.760;15.942;2024-02-14T07:19:49;6.30;;;4.90;;
24411;SDS011;12544;46.760;15.942;2024-02-14T07:22:18;8.48;;;5.70;;
24411;SDS011;12544;46.760;15.942;2024-02-14T07:24:46;10.60;;;7.18;;
24411;SDS011;12544;46.760;15.942;2024-02-14T07:27:14;7.47;;;5.65;;
24411;SDS011;12544;46.760;15.942;2024-02-14T07:29:41;6.43;;;4.70;;
24411;SDS011;12544;46.760;15.942;2024-02-14T07:32:07;6.28;;;4.40;;
24411;SDS011;12544;46.760;15.942;2024-02-14T07:34:33;5.40;;;4.57;;
24411;SDS011;12544;46.760;15.942;2024-02-14T07:36:59;8.10;;;5.97;;
24411;SDS011;12544;46.760;15.942;2024-02-14T07:39:24;11.60;;;7.35;;
24411;SDS011;12544;46.760;15.942;2024-02-14T07:41:50;12.00;;;7.72;;
24411;SDS011;12544;46.760;15.942;2024-02-14T07:44:16;9.52;;;7.03;;
24411;SDS011;12544;46.760;15.942;2024-02-14T07:46:42;7.22;;;4.68;;
24411;SDS011;12544;46.760;15.942;2024-02-14T07:49:08;8.02;;;4.57;;
24411;SDS011;12544;46.760;15.942;2024-02-14T07:51:35;6.78;;;4.57;;
24411;SDS011;12544;46.760;15.942;2024-02-14T07:54:03;5.65;;;4.53;;
24411;SDS011;12544;46.760;15.942;2024-02-14T07:56:29;7.20;;;5.18;;
24411;SDS011;12544;46.760;15.942;2024-02-14T07:58:55;5.63;;;4.65;;
24411;SDS011;12544;46.760;15.942;2024-02-14T08:01:20;5.05;;;4.13;;
24411;SDS011;12544;46.760;15.942;2024-02-14T08:03:46;6.07;;;4.60;;
24411;SDS011;12544;46.760;15.942;2024-02-14T08:06:12;5.68;;;4.40;;
24411;SDS011;12544;46.760;15.942;2024-02-14T08:08:38;5.13;;;4.10;;
24411;SDS011;12544;46.760;15.942;2024-02-14T08:11:04;4.85;;;3.90;;
24411;SDS011;12544;46.760;15.942;2024-02-14T08:13:30;5.72;;;3.75;;
24411;SDS011;12544;46.760;15.942;2024-02-14T08:15:55;5.80;;;4.18;;
24411;SDS011;12544;46.760;15.942;2024-02-14T08:18:21;6.43;;;4.90;;
24411;SDS011;12544;46.760;15.942;2024-02-14T08:20:48;5.43;;;4.18;;
24411;SDS011;12544;46.760;15.942;2024-02-14T08:23:13;5.72;;;5.13;;
24411;SDS011;12544;46.760;15.942;2024-02-14T08:25:39;6.85;;;3.97;;
24411;SDS011;12544;46.760;15.942;2024-02-14T08:28:06;5.55;;;4.72;;
24411;SDS011;12544;46.760;15.942;2024-02-14T08:30:32;6.18;;;4.25;;
24411;SDS011;12544;46.760;15.942;2024-02-14T08:32:58;4.75;;;4.22;;
24411;SDS011;12544;46.760;15.942;2024-02-14T08:35:24;5.32;;;3.90;;
24411;SDS011;12544;46.760;15.942;2024-02-14T08:37:50;4.43;;;3.95;;
24411;SDS011;12544;46.760;15.942;2024-02-14T08:40:15;4.32;;;3.92;;
24411;SDS011;12544;46.760;15.942;2024-02-14T08:42:41;7.25;;;4.32;;
24411;SDS011;12544;46.760;15.942;2024-02-14T08:45:07;4.25;;;3.70;;
24411;SDS011;12544;46.760;15.942;2024-02-14T08:47:33;5.10;;;4.25;;
24411;SDS011;12544;46.760;15.942;2024-02-14T08:49:59;6.75;;;3.65;;
24411;SDS011;12544;46.760;15.942;2024-02-14T08:52:25;4.47;;;4.07;;
24411;SDS011;12544;46.760;15.942;2024-02-14T08:54:51;9.32;;;4.47;;
24411;SDS011;12544;46.760;15.942;2024-02-14T08:57:16;8.05;;;4.53;;
24411;SDS011;12544;46.760;15.942;2024-02-14T08:59:43;4.57;;;4.07;;
24411;SDS011;12544;46.760;15.942;2024-02-14T09:02:12;5.40;;;4.00;;
24411;SDS011;12544;46.760;15.942;2024-02-14T09:04:38;6.97;;;4.32;;
24411;SDS011;12544;46.760;15.942;2024-02-14T09:07:06;7.07;;;4.18;;
24411;SDS011;12544;46.760;15.942;2024-02-14T09:09:33;5.68;;;4.45;;
24411;SDS011;12544;46.760;15.942;2024-02-14T09:11:59;4.90;;;4.00;;
24411;SDS011;12544;46.760;15.942;2024-02-14T09:14:29;4.38;;;3.95;;
24411;SDS011;12544;46.760;15.942;2024-02-14T09:16:55;5.93;;;4.10;;
24411;SDS011;12544;46.760;15.942;2024-02-14T09:19:21;4.72;;;4.15;;
24411;SDS011;12544;46.760;15.942;2024-02-14T09:21:47;3.85;;;3.47;;
24411;SDS011;12544;46.760;15.942;2024-02-14T09:24:12;4.45;;;4.00;;
24411;SDS011;12544;46.760;15.942;2024-02-14T09:26:38;6.47;;;4.05;;
24411;SDS011;12544;46.760;15.942;2024-02-14T09:29:05;4.15;;;3.75;;
24411;SDS011;12544;46.760;15.942;2024-02-14T09:31:30;6.40;;;4.10;;
24411;SDS011;12544;46.760;15.942;2024-02-14T09:33:56;6.15;;;3.63;;
24411;SDS011;12544;46.760;15.942;2024-02-14T09:36:23;4.68;;;3.53;;
24411;SDS011;12544;46.760;15.942;2024-02-14T09:38:49;3.42;;;3.03;;
24411;SDS011;12544;46.760;15.942;2024-02-14T09:41:28;5.95;;;3.40;;
24411;SDS011;12544;46.760;15.942;2024-02-14T09:44:05;3.38;;;2.97;;
24411;SDS011;12544;46.760;15.942;2024-02-14T09:46:32;4.55;;;3.22;;
24411;SDS011;12544;46.760;15.942;2024-02-14T09:49:02;4.03;;;3.00;;
24411;SDS011;12544;46.760;15.942;2024-02-14T09:51:29;3.55;;;3.22;;
24411;SDS011;12544;46.760;15.942;2024-02-14T09:53:55;5.25;;;3.15;;
24411;SDS011;12544;46.760;15.942;2024-02-14T09:56:22;3.22;;;2.75;;
24411;SDS011;12544;46.760;15.942;2024-02-14T09:58:49;2.75;;;2.13;;
24411;SDS011;12544;46.760;15.942;2024-02-14T10:01:21;3.20;;;2.80;;
24411;SDS011;12544;46.760;15.942;2024-02-14T10:03:49;2.53;;;2.00;;
24411;SDS011;12544;46.760;15.942;2024-02-14T10:06:20;3.15;;;2.33;;
24411;SDS011;12544;46.760;15.942;2024-02-14T10:08:49;3.97;;;3.28;;
24411;SDS011;12544;46.760;15.942;2024-02-14T10:11:18;3.40;;;3.08;;
24411;SDS011;12544;46.760;15.942;2024-02-14T10:13:46;4.07;;;2.90;;
24411;SDS011;12544;46.760;15.942;2024-02-14T10:16:13;3.60;;;2.70;;
24411;SDS011;12544;46.760;15.942;2024-02-14T10:18:43;4.50;;;3.05;;
24411;SDS011;12544;46.760;15.942;2024-02-14T10:21:14;3.83;;;2.60;;
24411;SDS011;12544;46.760;15.942;2024-02-14T10:23:42;5.40;;;4.30;;
24411;SDS011;12544;46.760;15.942;2024-02-14T10:26:08;2.63;;;2.10;;
24411;SDS011;12544;46.760;15.942;2024-02-14T10:28:37;3.72;;;1.85;;
24411;SDS011;12544;46.760;15.942;2024-02-14T10:31:06;3.17;;;2.83;;
24411;SDS011;12544;46.760;15.942;2024-02-14T10:33:34;3.13;;;2.30;;
24411;SDS011;12544;46.760;15.942;2024-02-14T10:35:59;2.50;;;2.28;;
24411;SDS011;12544;46.760;15.942;2024-02-14T10:38:28;4.30;;;1.85;;
24411;SDS011;12544;46.760;15.942;2024-02-14T10:43:27;3.30;;;1.80;;
24411;SDS011;12544;46.760;15.942;2024-02-14T10:45:56;4.47;;;1.95;;
24411;SDS011;12544;46.760;15.942;2024-02-14T10:48:24;3.17;;;1.52;;
24411;SDS011;12544;46.760;15.942;2024-02-14T10:50:52;1.90;;;1.48;;
24411;SDS011;12544;46.760;15.942;2024-02-14T10:53:20;1.77;;;1.48;;
24411;SDS011;12544;46.760;15.942;2024-02-14T10:55:48;2.22;;;1.70;;
24411;SDS011;12544;46.760;15.942;2024-02-14T10:58:17;2.15;;;1.42;;
24411;SDS011;12544;46.760;15.942;2024-02-14T11:00:44;1.92;;;1.42;;
24411;SDS011;12544;46.760;15.942;2024-02-14T11:03:10;1.92;;;1.63;;
24411;SDS011;12544;46.760;15.942;2024-02-14T11:05:43;1.73;;;1.30;;
24411;SDS011;12544;46.760;15.942;2024-02-14T11:08:13;1.50;;;1.40;;
24411;SDS011;12544;46.760;15.942;2024-02-14T11:10:40;2.17;;;1.48;;
24411;SDS011;12544;46.760;15.942;2024-02-14T11:13:09;1.52;;;1.40;;
24411;SDS011;12544;46.760;15.942;2024-02-14T11:15:37;4.07;;;1.65;;
24411;SDS011;12544;46.760;15.942;2024-02-14T11:18:05;2.50;;;1.55;;
24411;SDS011;12544;46.760;15.942;2024-02-14T11:20:34;2.53;;;1.75;;
24411;SDS011;12544;46.760;15.942;2024-02-14T11:23:01;6.22;;;1.80;;
24411;SDS011;12544;46.760;15.942;2024-02-14T11:25:31;2.90;;;1.70;;
24411;SDS011;12544;46.760;15.942;2024-02-14T11:27:59;3.22;;;2.35;;
24411;SDS011;12544;46.760;15.942;2024-02-14T11:30:30;2.78;;;1.95;;
24411;SDS011;12544;46.760;15.942;2024-02-14T11:33:10;2.20;;;1.73;;
24411;SDS011;12544;46.760;15.942;2024-02-14T11:35:46;3.60;;;2.03;;
24411;SDS011;12544;46.760;15.942;2024-02-14T11:38:15;2.50;;;2.30;;
24411;SDS011;12544;46.760;15.942;2024-02-14T11:40:40;2.55;;;1.98;;
24411;SDS011;12544;46.760;15.942;2024-02-14T11:43:16;3.20;;;2.40;;
24411;SDS011;12544;46.760;15.942;2024-02-14T11:45:44;3.22;;;2.05;;
24411;SDS011;12544;46.760;15.942;2024-02-14T11:48:11;3.88;;;2.35;;
24411;SDS011;12544;46.760;15.942;2024-02-14T11:50:38;3.72;;;2.22;;
24411;SDS011;12544;46.760;15.942;2024-02-14T11:53:08;2.80;;;2.50;;
24411;SDS011;12544;46.760;15.942;2024-02-14T11:55:36;3.22;;;2.35;;
24411;SDS011;12544;46.760;15.942;2024-02-14T11:58:06;3.17;;;2.63;;
24411;SDS011;12544;46.760;15.942;2024-02-14T12:00:39;3.70;;;2.50;;
24411;SDS011;12544;46.760;15.942;2024-02-14T12:05:45;4.25;;;2.40;;
24411;SDS011;12544;46.760;15.942;2024-02-14T12:08:12;2.95;;;2.53;;
24411;SDS011;12544;46.760;15.942;2024-02-14T12:10:38;2.75;;;2.13;;
24411;SDS011;12544;46.760;15.942;2024-02-14T12:13:17;5.20;;;2.55;;
24411;SDS011;12544;46.760;15.942;2024-02-14T12:15:45;3.28;;;2.50;;
24411;SDS011;12544;46.760;15.942;2024-02-14T12:18:12;3.53;;;2.72;;
24411;SDS011;12544;46.760;15.942;2024-02-14T12:20:41;4.65;;;2.85;;
24411;SDS011;12544;46.760;15.942;2024-02-14T12:23:07;3.05;;;2.30;;
24411;SDS011;12544;46.760;15.942;2024-02-14T12:25:39;3.22;;;2.65;;
24411;SDS011;12544;46.760;15.942;2024-02-14T12:28:05;4.20;;;3.03;;
24411;SDS011;12544;46.760;15.942;2024-02-14T12:30:46;3.00;;;2.60;;
24411;SDS011;12544;46.760;15.942;2024-02-14T12:33:26;3.42;;;2.53;;
24411;SDS011;12544;46.760;15.942;2024-02-14T12:35:55;5.30;;;3.22;;
24411;SDS011;12544;46.760;15.942;2024-02-14T12:38:23;3.72;;;3.15;;
24411;SDS011;12544;46.760;15.942;2024-02-14T12:40:49;3.88;;;3.10;;
24411;SDS011;12544;46.760;15.942;2024-02-14T12:43:16;4.28;;;3.53;;
24411;SDS011;12544;46.760;15.942;2024-02-14T12:45:41;4.60;;;2.97;;
24411;SDS011;12544;46.760;15.942;2024-02-14T12:48:08;2.80;;;2.50;;
24411;SDS011;12544;46.760;15.942;2024-02-14T12:50:37;4.63;;;3.97;;
24411;SDS011;12544;46.760;15.942;2024-02-14T12:53:04;3.72;;;3.13;;
24411;SDS011;12544;46.760;15.942;2024-02-14T12:55:30;6.28;;;3.47;;
24411;SDS011;12544;46.760;15.942;2024-02-14T12:57:56;4.97;;;4.22;;
24411;SDS011;12544;46.760;15.942;2024-02-14T13:00:22;3.50;;;2.95;;
24411;SDS011;12544;46.760;15.942;2024-02-14T13:02:48;3.75;;;3.33;;
24411;SDS011;12544;46.760;15.942;2024-02-14T13:05:14;4.15;;;3.40;;
24411;SDS011;12544;46.760;15.942;2024-02-14T13:07:41;5.10;;;3.22;;
24411;SDS011;12544;46.760;15.942;2024-02-14T13:10:07;4.20;;;3.13;;
24411;SDS011;12544;46.760;15.942;2024-02-14T13:12:35;4.22;;;3.25;;
24411;SDS011;12544;46.760;15.942;2024-02-14T13:15:01;4.10;;;2.80;;
24411;SDS011;12544;46.760;15.942;2024-02-14T13:17:27;3.67;;;2.70;;
24411;SDS011;12544;46.760;15.942;2024-02-14T13:19:54;3.67;;;2.97;;
24411;SDS011;12544;46.760;15.942;2024-02-14T13:22:19;3.75;;;2.47;;
24411;SDS011;12544;46.760;15.942;2024-02-14T13:24:45;3.42;;;2.75;;
24411;SDS011;12544;46.760;15.942;2024-02-14T13:27:11;3.20;;;2.55;;
24411;SDS011;12544;46.760;15.942;2024-02-14T13:29:37;5.75;;;2.83;;
24411;SDS011;12544;46.760;15.942;2024-02-14T13:32:03;4.63;;;3.22;;
24411;SDS011;12544;46.760;15.942;2024-02-14T13:34:32;5.45;;;3.20;;
24411;SDS011;12544;46.760;15.942;2024-02-14T13:36:58;4.97;;;3.17;;
24411;SDS011;12544;46.760;15.942;2024-02-14T13:39:24;4.43;;;2.85;;
24411;SDS011;12544;46.760;15.942;2024-02-14T13:41:50;4.35;;;2.17;;
24411;SDS011;12544;46.760;15.942;2024-02-14T13:44:17;4.60;;;2.70;;
24411;SDS011;12544;46.760;15.942;2024-02-14T13:46:43;3.75;;;2.45;;
24411;SDS011;12544;46.760;15.942;2024-02-14T13:49:15;3.90;;;2.35;;
24411;SDS011;12544;46.760;15.942;2024-02-14T13:51:46;3.05;;;2.30;;
24411;SDS011;12544;46.760;15.942;2024-02-14T13:54:12;3.47;;;2.30;;
24411;SDS011;12544;46.760;15.942;2024-02-14T13:56:38;3.85;;;2.67;;
24411;SDS011;12544;46.760;15.942;2024-02-14T13:59:04;2.75;;;2.15;;
24411;SDS011;12544;46.760;15.942;2024-02-14T14:01:30;4.15;;;2.60;;
24411;SDS011;12544;46.760;15.942;2024-02-14T14:03:55;4.18;;;2.50;;
24411;SDS011;12544;46.760;15.942;2024-02-14T14:06:23;2.70;;;2.38;;
24411;SDS011;12544;46.760;15.942;2024-02-14T14:08:49;4.05;;;2.13;;
24411;SDS011;12544;46.760;15.942;2024-02-14T14:11:15;3.60;;;2.25;;
24411;SDS011;12544;46.760;15.942;2024-02-14T14:13:41;2.38;;;1.77;;
24411;SDS011;12544;46.760;15.942;2024-02-14T14:16:07;1.80;;;1.70;;
24411;SDS011;12544;46.760;15.942;2024-02-14T14:18:33;3.00;;;1.90;;
24411;SDS011;12544;46.760;15.942;2024-02-14T14:20:59;1.73;;;1.52;;
24411;SDS011;12544;46.760;15.942;2024-02-14T14:23:25;3.33;;;2.00;;
24411;SDS011;12544;46.760;15.942;2024-02-14T14:25:51;3.25;;;1.65;;
24411;SDS011;12544;46.760;15.942;2024-02-14T14:28:16;3.97;;;1.90;;
24411;SDS011;12544;46.760;15.942;2024-02-14T14:30:44;1.88;;;1.30;;
24411;SDS011;12544;46.760;15.942;2024-02-14T14:33:10;1.55;;;1.35;;
24411;SDS011;12544;46.760;15.942;2024-02-14T14:35:36;1.50;;;1.40;;